Time;durP1;ratioP1;P1;durP2;ratioP2;P2;SDS_P1;SDS_P2;PMS_P1;PMS_P2;Temp;Humidity;BMP_temperature;BMP_pressure;BME280_temperature;BME280_humidity;BME280_pressure;Samples;Min_cycle;Max_cycle;Signal;HPM_P1;HPM_P2
2022/05/21 00:00:12;;;;;;;;;;;14.20;99.90;;;;;;4902055;29;19927;-85
2022/05/21 00:02:56;;;;;;;;;;;13.40;99.90;;;;;;4915364;29;19927;-85
2022/05/21 00:06:24;;;;;;;;;;;;;;;;;;;;;
2022/05/21 00:09:25;;;;;;;;;;;14.40;99.90;;;;;;4927087;29;19931;-85
2022/05/21 00:12:53;;;;;;;;;;;12.80;99.90;;;;;;4930155;28;19930;-85
2022/05/21 00:21:07;;;;;;;;;;;;;;;;;;;;;
2022/05/21 00:24:57;;;;;;;;;;;;;;;;;;;;;
2022/05/21 00:32:03;;;;;;;;;;;12.60;99.90;;;;;;4674997;30;19927;-84
2022/05/21 00:35:21;;;;;;;;;;;;;;;;;;;;;
2022/05/21 00:38:12;;;;;;;;;;;12.60;99.90;;;;;;4670513;30;19924;-84
2022/05/21 00:41:42;;;;;;;;;;;14.50;99.90;;;;;;4645047;30;19932;-85
2022/05/21 00:44:28;;;;;;;;;;;12.70;99.90;;;;;;4688119;30;19923;-85
2022/05/21 01:14:36;;;;;;;;;;;12.40;99.90;;;;;;5113601;27;19916;-88
2022/05/21 01:17:07;;;;;;;;;;;12.30;99.90;;;;;;5063830;28;19924;-89
2022/05/21 01:20:13;;;;;;;;;;;13.60;99.90;;;;;;5057519;28;19925;-88
2022/05/21 01:23:00;;;;;;;;;;;12.30;99.90;;;;;;5036940;28;19928;-89
2022/05/21 01:25:31;;;;;;;;;;;12.30;99.90;;;;;;5017822;28;19925;-88
2022/05/21 01:28:41;;;;;;;;;;;12.20;99.90;;;;;;5065294;28;19928;-88
2022/05/21 01:31:29;;;;;;;;;;;12.20;99.90;;;;;;5094912;28;19924;-89
2022/05/21 01:34:41;;;;;;;;;;;12.30;99.90;;;;;;5082571;28;19928;-89
2022/05/21 01:37:20;;;;;;;;;;;12.50;99.90;;;;;;5070342;28;19920;-88
2022/05/21 01:39:48;;;;;;;;;;;12.20;99.90;;;;;;5087402;28;19935;-88
2022/05/21 01:42:18;;;;;;;;;;;12.80;99.90;;;;;;5091573;28;19912;-88
2022/05/21 01:44:52;;;;;;;;;;;12.20;99.90;;;;;;5065629;28;19991;-87
2022/05/21 01:47:22;;;;;;;;;;;12.10;99.90;;;;;;5060528;28;19925;-88
2022/05/21 01:49:59;;;;;;;;;;;12.20;99.90;;;;;;5056608;28;19936;-87
2022/05/21 01:52:32;;;;;;;;;;;12.20;99.90;;;;;;5038544;28;19943;-88
2022/05/21 01:55:05;;;;;;;;;;;12.10;99.90;;;;;;5023432;28;19932;-88
2022/05/21 01:57:33;;;;;;;;;;;12.00;99.90;;;;;;5038320;28;19929;-88
2022/05/21 02:02:57;;;;;;;;;;;12.00;99.90;;;;;;5078575;28;19935;-88
2022/05/21 02:05:27;;;;;;;;;;;11.90;99.90;;;;;;5058164;28;19925;-88
2022/05/21 02:07:57;;;;;;;;;;;11.80;99.90;;;;;;5057328;28;19948;-89
2022/05/21 02:10:25;;;;;;;;;;;11.90;99.90;;;;;;5068023;28;19935;-89
2022/05/21 02:13:05;;;;;;;;;;;11.90;99.90;;;;;;5064801;28;19936;-88
2022/05/21 02:15:34;;;;;;;;;;;11.90;99.90;;;;;;5043502;28;20289;-89
2022/05/21 02:18:03;;;;;;;;;;;11.90;99.90;;;;;;5065991;28;19929;-89
2022/05/21 02:20:32;;;;;;;;;;;11.80;99.90;;;;;;5059879;28;19933;-89
2022/05/21 02:23:00;;;;;;;;;;;11.80;99.90;;;;;;5065852;28;19923;-89
2022/05/21 02:25:28;;;;;;;;;;;11.70;99.90;;;;;;5050588;28;20379;-89
2022/05/21 02:27:57;;;;;;;;;;;11.80;99.90;;;;;;5032949;28;19925;-89
2022/05/21 02:30:50;;;;;;;;;;;11.70;99.90;;;;;;5031510;28;19929;-89
2022/05/21 02:33:18;;;;;;;;;;;11.70;99.90;;;;;;5051037;28;19929;-88
2022/05/21 02:35:49;;;;;;;;;;;11.60;99.90;;;;;;5053992;28;19925;-88
2022/05/21 02:41:13;;;;;;;;;;;11.60;99.90;;;;;;5077004;28;19925;-87
2022/05/21 02:43:43;;;;;;;;;;;11.50;99.90;;;;;;5073039;28;19931;-88
2022/05/21 02:46:11;;;;;;;;;;;11.50;99.90;;;;;;5074220;28;19929;-88
2022/05/21 02:48:39;;;;;;;;;;;11.50;99.90;;;;;;5075649;28;20381;-89
2022/05/21 02:51:10;;;;;;;;;;;11.50;99.90;;;;;;5073479;28;19929;-88
2022/05/21 02:53:38;;;;;;;;;;;11.50;99.90;;;;;;5074111;28;19924;-87
2022/05/21 02:56:08;;;;;;;;;;;11.40;99.90;;;;;;5074529;28;19942;-87
2022/05/21 02:58:36;;;;;;;;;;;11.40;99.90;;;;;;5063186;28;19935;-89
2022/05/21 03:01:04;;;;;;;;;;;11.40;99.90;;;;;;5058328;28;19929;-88
2022/05/21 03:03:32;;;;;;;;;;;11.40;99.90;;;;;;5069252;28;19929;-87
2022/05/21 03:06:03;;;;;;;;;;;11.40;99.90;;;;;;5093446;28;19951;-89
2022/05/21 03:11:20;;;;;;;;;;;11.40;99.90;;;;;;5052914;28;19927;-88
2022/05/21 03:13:49;;;;;;;;;;;11.40;99.90;;;;;;5074778;28;19924;-88
2022/05/21 03:16:17;;;;;;;;;;;11.30;99.90;;;;;;5056309;28;19932;-88
2022/05/21 03:18:47;;;;;;;;;;;11.60;99.90;;;;;;5071776;28;19928;-89
2022/05/21 03:21:14;;;;;;;;;;;11.30;99.90;;;;;;5054849;28;19935;-87
2022/05/21 03:23:46;;;;;;;;;;;11.30;99.90;;;;;;5056880;28;20034;-88
2022/05/21 03:26:14;;;;;;;;;;;11.30;99.90;;;;;;5054885;28;19924;-88
2022/05/21 03:28:42;;;;;;;;;;;11.30;99.90;;;;;;5053363;28;19924;-89
2022/05/21 03:31:11;;;;;;;;;;;11.30;99.90;;;;;;5088248;28;19924;-89
2022/05/21 03:33:39;;;;;;;;;;;11.30;99.90;;;;;;5059754;28;19921;-89
2022/05/21 03:36:08;;;;;;;;;;;11.30;99.90;;;;;;5056784;28;19929;-88
2022/05/21 03:38:36;;;;;;;;;;;11.40;99.90;;;;;;5053917;28;20024;-88
2022/05/21 03:41:06;;;;;;;;;;;11.50;99.90;;;;;;5067509;28;19939;-87
2022/05/21 03:43:34;;;;;;;;;;;11.40;99.90;;;;;;5070607;28;19924;-88
2022/05/21 03:46:04;;;;;;;;;;;11.40;99.90;;;;;;5069831;28;20275;-88
2022/05/21 03:48:32;;;;;;;;;;;11.40;99.90;;;;;;5054755;28;19935;-88
2022/05/21 03:51:00;;;;;;;;;;;11.40;99.90;;;;;;5058681;28;19931;-88
2022/05/21 03:53:34;;;;;;;;;;;11.40;99.90;;;;;;5105770;28;19934;-89
2022/05/21 03:56:04;;;;;;;;;;;11.40;99.90;;;;;;5066180;28;19939;-88
2022/05/21 03:58:33;;;;;;;;;;;11.40;99.90;;;;;;5066995;28;19936;-88
2022/05/21 04:01:01;;;;;;;;;;;11.40;99.90;;;;;;5096229;28;19924;-88
2022/05/21 04:03:34;;;;;;;;;;;10.40;99.90;;;;;;5062906;28;19931;-88
2022/05/21 04:06:04;;;;;;;;;;;11.70;99.90;;;;;;5054293;28;20081;-88
2022/05/21 04:08:33;;;;;;;;;;;11.40;99.90;;;;;;5072180;28;19931;-88
2022/05/21 04:11:09;;;;;;;;;;;11.30;99.90;;;;;;5088505;28;19924;-88
2022/05/21 04:13:42;;;;;;;;;;;11.30;99.90;;;;;;5054548;28;19924;-88
2022/05/21 04:16:13;;;;;;;;;;;11.40;99.90;;;;;;5034638;28;19924;-88
2022/05/21 04:18:43;;;;;;;;;;;11.40;99.90;;;;;;5067131;28;19925;-87
2022/05/21 04:21:13;;;;;;;;;;;11.30;99.90;;;;;;5049076;28;19936;-88
2022/05/21 04:23:42;;;;;;;;;;;11.60;99.90;;;;;;5051305;28;19924;-88
2022/05/21 04:26:14;;;;;;;;;;;11.30;99.90;;;;;;5034622;28;19991;-89
2022/05/21 04:28:44;;;;;;;;;;;11.40;99.90;;;;;;5056565;28;19934;-86
2022/05/21 04:31:18;;;;;;;;;;;11.30;99.90;;;;;;5069846;28;19932;-87
2022/05/21 04:33:46;;;;;;;;;;;11.30;99.90;;;;;;5052359;28;19924;-87
2022/05/21 04:36:20;;;;;;;;;;;11.50;99.90;;;;;;5031558;28;19924;-86
2022/05/21 04:38:52;;;;;;;;;;;11.50;99.90;;;;;;5061360;28;19928;-88
2022/05/21 04:41:22;;;;;;;;;;;11.10;99.90;;;;;;5045025;28;19920;-87
2022/05/21 04:43:51;;;;;;;;;;;12.30;99.90;;;;;;5028935;28;19924;-88
2022/05/21 04:46:21;;;;;;;;;;;11.60;99.90;;;;;;5042150;28;19927;-87
2022/05/21 04:48:49;;;;;;;;;;;11.60;99.90;;;;;;5057742;28;19950;-88
2022/05/21 04:51:34;;;;;;;;;;;11.80;99.90;;;;;;5041203;28;19929;-88
2022/05/21 04:54:03;;;;;;;;;;;11.80;99.90;;;;;;5039614;28;19942;-88
2022/05/21 04:56:31;;;;;;;;;;;11.70;99.90;;;;;;5062428;28;19928;-88
2022/05/21 04:59:11;;;;;;;;;;;11.70;99.90;;;;;;5059951;28;20038;-89
2022/05/21 05:01:40;;;;;;;;;;;11.50;99.90;;;;;;5059081;28;19927;-89
2022/05/21 05:04:15;;;;;;;;;;;11.80;99.90;;;;;;5055188;28;20286;-87
2022/05/21 05:06:45;;;;;;;;;;;11.80;99.90;;;;;;5049527;28;19929;-87
2022/05/21 05:09:17;;;;;;;;;;;11.40;99.90;;;;;;5021901;28;19924;-88
2022/05/21 05:12:17;;;;;;;;;;;11.80;99.90;;;;;;5054390;28;20002;-88
2022/05/21 05:14:47;;;;;;;;;;;11.90;99.90;;;;;;5010908;28;19926;-87
2022/05/21 05:17:17;;;;;;;;;;;11.60;99.90;;;;;;5012297;28;19980;-87
2022/05/21 05:19:46;;;;;;;;;;;12.10;99.90;;;;;;5012359;28;19926;-88
2022/05/21 05:26:16;;;;;;;;;;;12.00;99.90;;;;;;5034316;28;19929;-90
2022/05/21 05:28:47;;;;;;;;;;;12.10;99.90;;;;;;5020172;28;19929;-89
2022/05/21 05:31:24;;;;;;;;;;;12.10;99.90;;;;;;5023246;28;19925;-88
2022/05/21 05:33:54;;;;;;;;;;;12.10;99.90;;;;;;5047897;28;19929;-89
2022/05/21 05:36:43;;;;;;;;;;;12.80;99.90;;;;;;5045357;28;19928;-88
2022/05/21 05:39:15;;;;;;;;;;;12.10;99.90;;;;;;5063745;28;19936;-88
2022/05/21 05:42:01;;;;;;;;;;;12.20;99.90;;;;;;5049044;28;19935;-89
2022/05/21 05:44:37;;;;;;;;;;;12.30;99.90;;;;;;5047406;28;19931;-88
2022/05/21 05:47:08;;;;;;;;;;;12.20;99.90;;;;;;5063446;28;19925;-89
2022/05/21 05:49:51;;;;;;;;;;;12.20;99.90;;;;;;5046185;28;19924;-89
2022/05/21 05:52:31;;;;;;;;;;;12.20;99.90;;;;;;5045253;28;19926;-89
2022/05/21 05:55:08;;;;;;;;;;;14.00;99.90;;;;;;5027527;28;19924;-88
2022/05/21 05:57:54;;;;;;;;;;;12.20;99.90;;;;;;5029322;28;20395;-89
2022/05/21 06:00:29;;;;;;;;;;;12.10;99.90;;;;;;5031755;28;19992;-89
2022/05/21 06:03:03;;;;;;;;;;;12.30;99.90;;;;;;5050136;28;19940;-89
2022/05/21 06:05:38;;;;;;;;;;;12.40;99.90;;;;;;5068452;28;19932;-88
2022/05/21 06:08:07;;;;;;;;;;;12.30;99.90;;;;;;5051502;28;19929;-89
2022/05/21 06:10:43;;;;;;;;;;;12.40;99.90;;;;;;5044209;28;19936;-88
2022/05/21 06:13:13;;;;;;;;;;;12.40;99.90;;;;;;5035407;28;19929;-89
2022/05/21 06:15:41;;;;;;;;;;;12.50;99.90;;;;;;5050171;28;19940;-89
2022/05/21 06:18:10;;;;;;;;;;;12.50;99.90;;;;;;5020707;28;19932;-89
2022/05/21 06:20:38;;;;;;;;;;;12.60;99.90;;;;;;5037017;28;19936;-89
2022/05/21 06:23:06;;;;;;;;;;;12.70;99.90;;;;;;5047573;28;19925;-89
2022/05/21 06:25:34;;;;;;;;;;;12.70;99.90;;;;;;5017695;28;19925;-89
2022/05/21 06:28:04;;;;;;;;;;;12.70;99.90;;;;;;5033379;28;19926;-88
2022/05/21 06:30:32;;;;;;;;;;;13.00;99.90;;;;;;5016662;28;19932;-89
2022/05/21 06:33:17;;;;;;;;;;;12.90;99.90;;;;;;5013783;28;19925;-89
2022/05/21 06:35:46;;;;;;;;;;;13.00;99.90;;;;;;5053580;28;19932;-89
2022/05/21 06:38:14;;;;;;;;;;;13.00;99.90;;;;;;5045212;28;19932;-88
2022/05/21 06:40:42;;;;;;;;;;;13.00;99.90;;;;;;5028579;28;19930;-89
2022/05/21 06:43:10;;;;;;;;;;;13.90;99.90;;;;;;5002791;28;19929;-89
2022/05/21 06:45:38;;;;;;;;;;;13.10;99.90;;;;;;5001350;28;19924;-89
2022/05/21 06:48:07;;;;;;;;;;;13.70;99.90;;;;;;5033641;28;20020;-89
2022/05/21 06:50:37;;;;;;;;;;;13.20;99.90;;;;;;4999118;28;19929;-89
2022/05/21 06:53:06;;;;;;;;;;;13.30;99.90;;;;;;4996372;28;19930;-89
2022/05/21 06:55:33;;;;;;;;;;;13.50;99.90;;;;;;5032809;28;19929;-89
2022/05/21 06:58:01;;;;;;;;;;;13.40;99.90;;;;;;5015213;28;19925;-89
2022/05/21 07:00:28;;;;;;;;;;;13.20;99.90;;;;;;5001767;28;20320;-88
2022/05/21 07:02:56;;;;;;;;;;;13.60;99.90;;;;;;5033765;28;19940;-89
2022/05/21 07:08:28;;;;;;;;;;;13.70;99.90;;;;;;5026882;28;19924;-89
2022/05/21 07:10:56;;;;;;;;;;;13.60;99.90;;;;;;5012799;28;19925;-90
2022/05/21 07:13:24;;;;;;;;;;;13.80;99.90;;;;;;5013320;28;19937;-89
2022/05/21 07:15:55;;;;;;;;;;;13.90;99.90;;;;;;5030633;28;19929;-89
2022/05/21 07:18:23;;;;;;;;;;;13.90;99.90;;;;;;5012035;28;19925;-89
2022/05/21 07:20:51;;;;;;;;;;;14.00;99.90;;;;;;5007359;28;20299;-89
2022/05/21 07:23:21;;;;;;;;;;;15.20;99.90;;;;;;5041407;28;20239;-90
2022/05/21 07:25:55;;;;;;;;;;;14.00;99.90;;;;;;5018626;28;19929;-90
2022/05/21 07:28:22;;;;;;;;;;;14.00;99.90;;;;;;5004059;28;19930;-89
2022/05/21 07:30:53;;;;;;;;;;;14.10;99.90;;;;;;5009299;28;20320;-89
2022/05/21 07:33:22;;;;;;;;;;;14.00;99.90;;;;;;5022611;28;20277;-90
2022/05/21 07:35:51;;;;;;;;;;;14.20;99.90;;;;;;5028775;28;19936;-90
2022/05/21 07:38:19;;;;;;;;;;;14.30;99.90;;;;;;5007017;28;19929;-89
2022/05/21 07:40:47;;;;;;;;;;;14.60;99.90;;;;;;5019285;28;19925;-89
2022/05/21 07:43:18;;;;;;;;;;;14.40;99.90;;;;;;5045310;28;19937;-89
2022/05/21 07:45:47;;;;;;;;;;;14.40;99.90;;;;;;5033975;28;19925;-89
2022/05/21 07:48:16;;;;;;;;;;;14.40;99.90;;;;;;5008636;28;19932;-90
2022/05/21 07:50:56;;;;;;;;;;;14.50;99.90;;;;;;5014873;28;19925;-90
2022/05/21 07:53:25;;;;;;;;;;;14.50;99.90;;;;;;5015790;28;19929;-90
2022/05/21 07:55:53;;;;;;;;;;;14.00;99.90;;;;;;5019766;28;19925;-89
2022/05/21 07:58:22;;;;;;;;;;;14.60;99.90;;;;;;5027223;28;19926;-90
2022/05/21 08:00:51;;;;;;;;;;;13.90;99.90;;;;;;5030124;28;19928;-90
2022/05/21 08:03:19;;;;;;;;;;;14.80;99.90;;;;;;5035919;28;19929;-89
2022/05/21 08:05:47;;;;;;;;;;;15.00;99.90;;;;;;5018286;28;19932;-90
2022/05/21 08:08:15;;;;;;;;;;;15.10;99.90;;;;;;5027983;28;20460;-90
2022/05/21 08:10:44;;;;;;;;;;;15.20;99.90;;;;;;5014650;28;19936;-89
2022/05/21 08:13:15;;;;;;;;;;;15.20;99.90;;;;;;5016901;28;19936;-90
2022/05/21 08:15:44;;;;;;;;;;;15.30;99.90;;;;;;5041485;28;19936;-89
2022/05/21 08:18:12;;;;;;;;;;;15.40;99.90;;;;;;5038251;28;19925;-89
2022/05/21 08:20:40;;;;;;;;;;;15.50;99.90;;;;;;5037511;28;19936;-90
2022/05/21 08:28:45;;;;;;;;;;;15.70;99.90;;;;;;5078266;28;19925;-90
2022/05/21 08:31:13;;;;;;;;;;;15.80;99.90;;;;;;5037958;28;19924;-90
2022/05/21 08:33:40;;;;;;;;;;;15.80;99.90;;;;;;5064738;28;19946;-90
2022/05/21 08:36:08;;;;;;;;;;;15.90;99.90;;;;;;5033008;28;20450;-90
2022/05/21 08:38:36;;;;;;;;;;;16.00;99.90;;;;;;5073807;28;20391;-89
2022/05/21 08:41:06;;;;;;;;;;;16.00;99.90;;;;;;5049954;28;19929;-90
2022/05/21 08:43:46;;;;;;;;;;;16.10;99.90;;;;;;5038895;28;19932;-90
2022/05/21 08:46:22;;;;;;;;;;;16.20;99.90;;;;;;5034076;28;19929;-90
2022/05/21 08:48:55;;;;;;;;;;;15.80;99.90;;;;;;5038709;28;19929;-90
2022/05/21 08:51:28;;;;;;;;;;;16.50;99.70;;;;;;5031108;28;20411;-90
2022/05/21 08:53:57;;;;;;;;;;;16.40;99.70;;;;;;5034069;28;20315;-91
2022/05/21 08:56:24;;;;;;;;;;;16.80;99.50;;;;;;5048649;28;20406;-89
2022/05/21 08:58:57;;;;;;;;;;;16.90;98.80;;;;;;5041851;28;19979;-90
2022/05/21 09:01:25;;;;;;;;;;;17.00;98.80;;;;;;5037960;28;20133;-90
2022/05/21 09:03:54;;;;;;;;;;;18.00;98.50;;;;;;5031130;28;19928;-90
2022/05/21 09:06:44;;;;;;;;;;;17.10;98.20;;;;;;5030152;28;19929;-90
2022/05/21 09:09:31;;;;;;;;;;;17.10;97.40;;;;;;5030858;28;20031;-90
2022/05/21 09:11:58;;;;;;;;;;;17.20;96.90;;;;;;5041933;28;19933;-91
2022/05/21 09:14:36;;;;;;;;;;;17.20;96.70;;;;;;5013265;28;19937;-91
2022/05/21 09:17:09;;;;;;;;;;;17.30;96.40;;;;;;5044147;28;19935;-90
2022/05/21 09:19:45;;;;;;;;;;;17.40;96.10;;;;;;5028640;28;19944;-90
2022/05/21 09:22:17;;;;;;;;;;;17.50;96.20;;;;;;5031221;28;19928;-91
2022/05/21 09:25:16;;;;;;;;;;;17.60;95.90;;;;;;5043990;28;19928;-91
2022/05/21 09:27:49;;;;;;;;;;;17.60;95.90;;;;;;5043269;28;19924;-91
2022/05/21 09:30:25;;;;;;;;;;;17.70;95.20;;;;;;5052752;28;19932;-90
2022/05/21 09:32:54;;;;;;;;;;;17.70;95.40;;;;;;5055249;28;19931;-89
2022/05/21 09:35:48;;;;;;;;;;;17.60;94.70;;;;;;5033353;28;19931;-90
2022/05/21 09:38:22;;;;;;;;;;;17.90;95.10;;;;;;5049399;28;19929;-92
2022/05/21 09:41:03;;;;;;;;;;;17.70;94.80;;;;;;5034482;28;19932;-90
2022/05/21 09:46:21;;;;;;;;;;;17.90;94.70;;;;;;5052923;28;19940;-90
2022/05/21 09:48:53;;;;;;;;;;;18.10;94.80;;;;;;5033812;28;20388;-91
2022/05/21 09:51:32;;;;;;;;;;;18.20;93.80;;;;;;5036057;28;19933;-90
2022/05/21 09:54:00;;;;;;;;;;;18.30;93.80;;;;;;5035089;28;19929;-90
2022/05/21 09:56:33;;;;;;;;;;;18.30;93.70;;;;;;5034767;28;19928;-90
2022/05/21 09:59:08;;;;;;;;;;;18.40;93.80;;;;;;5034476;28;19955;-90
2022/05/21 10:01:39;;;;;;;;;;;18.60;93.30;;;;;;5031664;28;19939;-92
2022/05/21 10:04:32;;;;;;;;;;;18.80;93.30;;;;;;5053678;28;20323;-91
2022/05/21 10:07:12;;;;;;;;;;;18.80;93.00;;;;;;5033291;28;20312;-89
2022/05/21 10:12:40;;;;;;;;;;;19.00;92.00;;;;;;5050148;28;19924;-91
2022/05/21 10:15:15;;;;;;;;;;;18.00;91.40;;;;;;5063837;28;19944;-91
2022/05/21 10:17:45;;;;;;;;;;;19.00;91.50;;;;;;5017293;28;19924;-91
2022/05/21 10:20:26;;;;;;;;;;;19.00;91.70;;;;;;5011679;28;19929;-87
2022/05/21 10:23:19;;;;;;;;;;;19.10;91.30;;;;;;5049649;28;20028;-90
2022/05/21 10:26:17;;;;;;;;;;;19.00;90.70;;;;;;5046628;28;19939;-88
2022/05/21 10:29:22;;;;;;;;;;;19.30;90.40;;;;;;5065542;28;19932;-89
2022/05/21 10:32:13;;;;;;;;;;;18.10;90.00;;;;;;5047752;28;19926;-89
2022/05/21 10:34:50;;;;;;;;;;;18.90;90.60;;;;;;5051316;28;19925;-89
2022/05/21 10:37:31;;;;;;;;;;;19.00;90.50;;;;;;5050010;28;19933;-91
2022/05/21 10:40:23;;;;;;;;;;;18.90;90.40;;;;;;5034056;28;19933;-88
2022/05/21 10:43:03;;;;;;;;;;;18.80;90.60;;;;;;5046168;23;19938;-79
2022/05/21 10:45:32;;;;;;;;;;;18.70;90.30;;;;;;5022589;28;19937;-80
2022/05/21 10:48:20;;;;;;;;;;;18.70;90.40;;;;;;5039597;28;19940;-79
2022/05/21 10:50:50;;;;;;;;;;;18.70;90.30;;;;;;5024119;28;19925;-79
2022/05/21 10:53:38;;;;;;;;;;;19.00;89.90;;;;;;5023131;28;19933;-79
2022/05/21 10:56:12;;;;;;;;;;;19.10;89.30;;;;;;5018548;28;19929;-79
2022/05/21 10:58:50;;;;;;;;;;;19.20;85.80;;;;;;5055192;28;19925;-80
2022/05/21 11:01:29;;;;;;;;;;;19.40;87.40;;;;;;5039147;28;19944;-79
2022/05/21 11:04:04;;;;;;;;;;;19.40;86.90;;;;;;5023760;28;19929;-79
2022/05/21 11:06:37;;;;;;;;;;;19.50;86.00;;;;;;5020399;28;19930;-80
2022/05/21 11:09:20;;;;;;;;;;;19.50;86.80;;;;;;5037854;28;19935;-79
2022/05/21 11:12:18;;;;;;;;;;;19.60;86.10;;;;;;5027841;28;19930;-80
2022/05/21 11:14:52;;;;;;;;;;;19.70;85.10;;;;;;5030217;28;19936;-78
2022/05/21 11:17:30;;;;;;;;;;;20.00;84.90;;;;;;5039087;28;19925;-79
2022/05/21 11:20:02;;;;;;;;;;;20.00;83.80;;;;;;5027208;28;19922;-79
2022/05/21 11:22:36;;;;;;;;;;;20.10;84.50;;;;;;5034640;28;19923;-79
2022/05/21 11:25:18;;;;;;;;;;;20.10;84.10;;;;;;5037611;28;19932;-79
2022/05/21 11:27:53;;;;;;;;;;;20.20;83.00;;;;;;5028743;28;19932;-79
2022/05/21 11:30:23;;;;;;;;;;;20.30;83.80;;;;;;5019076;28;19936;-79
2022/05/21 11:38:35;;;;;;;;;;;20.50;82.80;;;;;;5036230;28;19981;-80
2022/05/21 11:41:27;;;;;;;;;;;20.50;82.90;;;;;;5017919;28;19925;-82
2022/05/21 11:44:55;;;;;;;;;;;20.50;82.20;;;;;;5033743;28;19929;-84
2022/05/21 11:46:52;;;;;;;;;;;20.60;81.40;;;;;;5041953;28;19935;-83
2022/05/21 11:49:38;;;;;;;;;;;20.70;82.40;;;;;;5039728;28;20011;-83
2022/05/21 11:52:25;;;;;;;;;;;20.70;82.30;;;;;;5013146;28;19944;-84
2022/05/21 11:54:54;;;;;;;;;;;20.90;82.70;;;;;;5020181;28;19933;-82
2022/05/21 11:57:38;;;;;;;;;;;20.90;82.40;;;;;;5016459;28;19957;-82
2022/05/21 12:00:29;;;;;;;;;;;21.10;81.90;;;;;;5034283;28;19926;-84
2022/05/21 12:03:06;;;;;;;;;;;20.80;81.40;;;;;;5017940;28;19930;-84
2022/05/21 12:05:49;;;;;;;;;;;20.90;82.90;;;;;;5041567;28;19929;-82
2022/05/21 12:08:36;;;;;;;;;;;21.00;82.20;;;;;;5043119;28;19944;-82
2022/05/21 12:11:06;;;;;;;;;;;20.80;81.00;;;;;;5023852;28;19940;-82
2022/05/21 12:13:34;;;;;;;;;;;21.10;81.70;;;;;;5038741;28;19933;-82
2022/05/21 12:16:16;;;;;;;;;;;21.20;81.80;;;;;;5010915;28;19929;-82
2022/05/21 12:18:47;;;;;;;;;;;21.20;80.90;;;;;;5035727;28;19938;-83
2022/05/21 12:21:38;;;;;;;;;;;22.20;82.20;;;;;;5024999;28;19936;-82
2022/05/21 12:24:36;;;;;;;;;;;21.70;81.00;;;;;;5035816;28;19925;-83
2022/05/21 12:27:27;;;;;;;;;;;20.80;80.20;;;;;;5004228;28;20363;-83
2022/05/21 12:30:03;;;;;;;;;;;20.50;78.80;;;;;;4992097;28;20362;-83
2022/05/21 12:32:39;;;;;;;;;;;21.30;79.80;;;;;;5020849;28;19929;-82
2022/05/21 12:35:20;;;;;;;;;;;21.30;80.10;;;;;;5040601;28;20306;-82
2022/05/21 12:37:58;;;;;;;;;;;21.50;79.50;;;;;;5015726;28;20378;-83
2022/05/21 12:40:29;;;;;;;;;;;21.60;79.30;;;;;;5024765;28;19933;-83
2022/05/21 12:43:11;;;;;;;;;;;21.80;80.20;;;;;;5023608;28;19925;-82
2022/05/21 12:45:47;;;;;;;;;;;21.80;78.90;;;;;;5030472;28;19925;-83
2022/05/21 12:48:20;;;;;;;;;;;22.10;78.00;;;;;;5018253;28;19943;-82
2022/05/21 12:50:59;;;;;;;;;;;22.00;79.10;;;;;;5039503;28;19932;-83
2022/05/21 12:53:47;;;;;;;;;;;21.40;77.90;;;;;;5036222;28;20286;-82
2022/05/21 12:56:38;;;;;;;;;;;21.80;78.40;;;;;;5038722;28;19943;-83
2022/05/21 12:59:19;;;;;;;;;;;21.70;77.50;;;;;;5041116;28;19948;-83
2022/05/21 13:02:01;;;;;;;;;;;21.80;77.80;;;;;;5022761;28;19940;-84
2022/05/21 13:04:38;;;;;;;;;;;21.20;77.00;;;;;;5001685;28;19933;-82
2022/05/21 13:07:15;;;;;;;;;;;22.10;77.20;;;;;;4997998;28;19929;-82
2022/05/21 13:10:05;;;;;;;;;;;22.30;76.60;;;;;;5016574;28;19925;-84
2022/05/21 13:12:40;;;;;;;;;;;22.40;75.80;;;;;;5020398;28;19929;-85
2022/05/21 13:15:18;;;;;;;;;;;22.40;75.10;;;;;;5005881;28;19913;-84
2022/05/21 13:17:50;;;;;;;;;;;22.40;76.70;;;;;;5025633;28;19930;-82
2022/05/21 13:20:49;;;;;;;;;;;22.20;76.50;;;;;;5029977;28;20318;-85
2022/05/21 13:23:20;;;;;;;;;;;22.00;74.40;;;;;;4986427;28;19930;-82
2022/05/21 13:25:55;;;;;;;;;;;21.90;75.40;;;;;;5018529;28;19926;-84
2022/05/21 13:28:26;;;;;;;;;;;21.70;75.60;;;;;;5002606;28;19941;-83
2022/05/21 13:30:54;;;;;;;;;;;21.70;75.50;;;;;;5001831;28;20420;-83
2022/05/21 13:33:31;;;;;;;;;;;23.00;76.90;;;;;;5017898;28;19929;-87
2022/05/21 13:36:03;;;;;;;;;;;22.20;76.20;;;;;;5003471;28;19930;-82
2022/05/21 13:38:34;;;;;;;;;;;22.60;74.50;;;;;;5015313;28;19934;-84
2022/05/21 13:41:14;;;;;;;;;;;22.70;74.50;;;;;;5018480;28;19940;-87
2022/05/21 13:43:46;;;;;;;;;;;22.80;74.40;;;;;;5000867;28;19952;-84
2022/05/21 13:46:27;;;;;;;;;;;22.50;74.00;;;;;;5017410;28;19929;-82
2022/05/21 13:48:56;;;;;;;;;;;22.50;74.20;;;;;;5018774;28;19939;-83
2022/05/21 13:51:24;;;;;;;;;;;22.40;74.90;;;;;;5015188;28;19936;-85
2022/05/21 13:53:56;;;;;;;;;;;22.40;74.50;;;;;;5017712;28;19925;-84
2022/05/21 13:56:59;;;;;;;;;;;22.60;73.50;;;;;;5020851;28;19937;-86
2022/05/21 13:59:31;;;;;;;;;;;22.70;74.70;;;;;;5034702;28;20693;-84
2022/05/21 14:02:18;;;;;;;;;;;22.80;74.40;;;;;;5028023;28;19926;-80
2022/05/21 14:04:47;;;;;;;;;;;22.80;73.90;;;;;;5000543;28;19933;-80
2022/05/21 14:07:28;;;;;;;;;;;22.40;73.30;;;;;;5032908;28;19929;-84
2022/05/21 14:10:03;;;;;;;;;;;22.30;73.60;;;;;;5022839;28;19929;-85
2022/05/21 14:12:53;;;;;;;;;;;23.40;74.50;;;;;;5037520;28;19931;-85
2022/05/21 14:15:33;;;;;;;;;;;22.20;73.40;;;;;;5009304;28;19936;-84
2022/05/21 14:18:04;;;;;;;;;;;22.20;73.70;;;;;;5026743;28;19925;-84
2022/05/21 14:20:36;;;;;;;;;;;22.30;74.00;;;;;;5015802;28;19925;-84
2022/05/21 14:23:36;;;;;;;;;;;22.40;73.90;;;;;;5022755;28;19934;-83
2022/05/21 14:26:37;;;;;;;;;;;22.40;73.90;;;;;;5024098;28;19944;-84
2022/05/21 14:29:32;;;;;;;;;;;22.90;74.40;;;;;;5004450;28;19929;-84
2022/05/21 14:32:15;;;;;;;;;;;22.90;73.70;;;;;;5023227;28;19949;-85
2022/05/21 14:34:44;;;;;;;;;;;23.20;72.80;;;;;;5007172;28;19925;-84
2022/05/21 14:37:22;;;;;;;;;;;23.10;72.10;;;;;;5019784;28;19933;-83
2022/05/21 14:39:53;;;;;;;;;;;23.00;72.20;;;;;;5024033;28;19933;-83
2022/05/21 14:42:23;;;;;;;;;;;22.80;72.80;;;;;;5022601;28;19936;-83
2022/05/21 14:44:53;;;;;;;;;;;23.20;72.30;;;;;;5020710;28;21369;-83
2022/05/21 14:53:00;;;;;;;;;;;23.10;72.30;;;;;;5024938;28;19925;-84
2022/05/21 14:55:29;;;;;;;;;;;23.00;72.40;;;;;;5025667;28;19925;-84
2022/05/21 14:57:57;;;;;;;;;;;23.00;72.60;;;;;;5021869;28;20457;-82
2022/05/21 15:00:26;;;;;;;;;;;22.90;72.50;;;;;;5020818;28;19929;-83
2022/05/21 15:02:56;;;;;;;;;;;23.30;72.30;;;;;;5020210;28;20013;-82
2022/05/21 15:05:25;;;;;;;;;;;23.70;72.10;;;;;;5019010;28;19934;-82
2022/05/21 15:07:55;;;;;;;;;;;24.30;71.40;;;;;;5020758;28;19930;-84
2022/05/21 15:10:24;;;;;;;;;;;24.60;70.20;;;;;;5018012;28;19933;-81
2022/05/21 15:12:58;;;;;;;;;;;24.60;70.50;;;;;;5019167;28;19933;-81
2022/05/21 15:15:28;;;;;;;;;;;24.50;68.70;;;;;;5018418;28;19930;-83
2022/05/21 15:18:36;;;;;;;;;;;24.40;69.80;;;;;;5006038;28;21153;-81
2022/05/21 15:21:05;;;;;;;;;;;24.60;69.50;;;;;;5018474;28;19925;-83
2022/05/21 15:23:33;;;;;;;;;;;23.70;69.60;;;;;;5019254;28;19926;-82
2022/05/21 15:26:03;;;;;;;;;;;24.90;69.30;;;;;;5034271;28;19926;-82
2022/05/21 15:28:32;;;;;;;;;;;25.00;69.00;;;;;;5021077;28;19952;-84
2022/05/21 15:31:01;;;;;;;;;;;25.20;68.00;;;;;;5020656;28;19926;-84
2022/05/21 15:33:30;;;;;;;;;;;25.40;68.70;;;;;;5020349;28;19941;-84
2022/05/21 15:35:58;;;;;;;;;;;25.50;67.60;;;;;;5017907;28;19933;-82
2022/05/21 15:38:25;;;;;;;;;;;25.50;67.30;;;;;;5016560;28;20407;-84
2022/05/21 15:40:56;;;;;;;;;;;25.50;66.70;;;;;;5016893;28;19933;-84
2022/05/21 15:43:25;;;;;;;;;;;25.40;66.60;;;;;;5001488;28;20268;-84
2022/05/21 15:45:53;;;;;;;;;;;25.10;65.60;;;;;;5018569;28;19933;-82
2022/05/21 15:48:24;;;;;;;;;;;24.80;66.40;;;;;;4998913;28;19929;-84
2022/05/21 15:50:57;;;;;;;;;;;24.60;67.70;;;;;;5017312;28;19929;-80
2022/05/21 15:53:25;;;;;;;;;;;24.40;67.40;;;;;;5001319;28;19940;-82
2022/05/21 15:55:54;;;;;;;;;;;24.40;67.10;;;;;;5001540;28;19933;-83
2022/05/21 15:58:23;;;;;;;;;;;24.60;67.60;;;;;;5019049;28;19940;-83
2022/05/21 16:00:54;;;;;;;;;;;25.00;66.30;;;;;;5016879;28;19926;-81
2022/05/21 16:03:22;;;;;;;;;;;25.30;65.10;;;;;;5016117;28;19926;-83
2022/05/21 16:05:52;;;;;;;;;;;25.30;64.50;;;;;;5020132;28;19929;-83
2022/05/21 16:08:22;;;;;;;;;;;23.50;64.20;;;;;;5015748;28;19934;-81
2022/05/21 16:10:52;;;;;;;;;;;24.60;65.50;;;;;;5023489;28;19930;-83
2022/05/21 16:13:20;;;;;;;;;;;24.40;65.60;;;;;;5023056;28;19929;-83
2022/05/21 16:15:47;;;;;;;;;;;24.30;66.60;;;;;;5000653;28;20335;-83
2022/05/21 16:18:16;;;;;;;;;;;24.50;66.10;;;;;;5004129;28;19941;-82
2022/05/21 16:20:48;;;;;;;;;;;24.70;65.40;;;;;;5023874;28;20446;-82
2022/05/21 16:23:16;;;;;;;;;;;24.50;65.00;;;;;;5023610;28;19932;-83